Time;durP1;ratioP1;P1;durP2;ratioP2;P2;SDS_P1;SDS_P2;PMS_P1;PMS_P2;Temp;Humidity;BMP_temperature;BMP_pressure;BME280_temperature;BME280_humidity;BME280_pressure;Samples;Min_cycle;Max_cycle;Signal;HPM_P1;HPM_P2
2021/05/17 00:02:01;;;;;;;;;;;20.30;51.50;;;;;;5033138;28;75091;-67
2021/05/17 00:04:36;;;;;;;;;;;20.20;51.50;;;;;;5051112;28;75315;-67
2021/05/17 00:07:04;;;;;;;;;;;20.20;51.60;;;;;;5026085;28;77546;-67
2021/05/17 00:09:30;;;;;;;;;;;20.20;51.60;;;;;;5014176;28;75543;-67
2021/05/17 00:11:55;;;;;;;;;;;20.20;51.50;;;;;;5012132;28;77467;-67
2021/05/17 00:14:22;;;;;;;;;;;20.20;51.60;;;;;;5033103;28;74441;-66
2021/05/17 00:16:48;;;;;;;;;;;20.10;51.40;;;;;;5033007;28;75492;-66
2021/05/17 00:19:14;;;;;;;;;;;20.10;51.50;;;;;;5027102;28;75059;-68
2021/05/17 00:21:40;;;;;;;;;;;20.00;51.30;;;;;;5029048;28;75319;-65
2021/05/17 00:24:06;;;;;;;;;;;20.00;51.20;;;;;;5013935;28;77359;-67
2021/05/17 00:26:31;;;;;;;;;;;20.00;51.20;;;;;;5014088;28;75370;-69
2021/05/17 00:28:57;;;;;;;;;;;20.00;51.10;;;;;;5013892;28;74777;-68
2021/05/17 00:31:23;;;;;;;;;;;20.00;51.00;;;;;;5032832;28;74537;-70
2021/05/17 00:33:48;;;;;;;;;;;19.90;51.00;;;;;;5047551;28;76324;-69
2021/05/17 00:36:14;;;;;;;;;;;19.90;50.90;;;;;;5013920;28;75297;-68
2021/05/17 00:38:40;;;;;;;;;;;19.90;50.70;;;;;;5013268;28;77639;-68
2021/05/17 00:41:06;;;;;;;;;;;19.90;50.70;;;;;;5046756;28;77094;-68
2021/05/17 00:43:35;;;;;;;;;;;19.80;50.60;;;;;;5013970;28;75385;-68
2021/05/17 00:46:02;;;;;;;;;;;19.90;50.50;;;;;;5014357;28;75394;-68
2021/05/17 00:48:28;;;;;;;;;;;19.70;50.40;;;;;;5012915;28;76198;-68
2021/05/17 00:50:55;;;;;;;;;;;19.70;50.50;;;;;;5030139;28;76563;-68
2021/05/17 00:53:21;;;;;;;;;;;19.70;50.50;;;;;;5032378;28;74541;-65
2021/05/17 00:55:47;;;;;;;;;;;19.60;50.40;;;;;;5013876;28;77337;-68
2021/05/17 00:58:13;;;;;;;;;;;19.50;50.30;;;;;;5032114;28;75780;-69
2021/05/17 01:00:38;;;;;;;;;;;19.50;50.20;;;;;;5013068;28;75783;-68
2021/05/17 01:03:04;;;;;;;;;;;19.50;50.20;;;;;;5013600;28;75383;-67
2021/05/17 01:05:30;;;;;;;;;;;19.50;50.00;;;;;;5013650;28;78201;-68
2021/05/17 01:07:56;;;;;;;;;;;19.40;49.80;;;;;;5031612;28;75719;-68
2021/05/17 01:10:22;;;;;;;;;;;19.40;49.50;;;;;;5013062;28;77266;-67
2021/05/17 01:12:50;;;;;;;;;;;19.40;49.50;;;;;;5046584;28;76406;-68
2021/05/17 01:15:16;;;;;;;;;;;19.30;49.20;;;;;;5013059;28;77075;-69
2021/05/17 01:17:43;;;;;;;;;;;19.30;49.20;;;;;;5013121;28;94736;-67
2021/05/17 01:20:10;;;;;;;;;;;19.30;49.30;;;;;;5031748;28;74502;-68
2021/05/17 01:22:48;;;;;;;;;;;19.20;49.10;;;;;;5031576;28;75693;-66
2021/05/17 01:25:14;;;;;;;;;;;19.20;49.00;;;;;;5013545;28;75672;-68
2021/05/17 01:27:40;;;;;;;;;;;19.20;48.80;;;;;;5013013;28;74482;-68
2021/05/17 01:30:06;;;;;;;;;;;19.10;48.70;;;;;;5032080;28;75818;-68
2021/05/17 01:32:32;;;;;;;;;;;19.00;48.90;;;;;;5034556;28;75657;-68
2021/05/17 01:34:58;;;;;;;;;;;19.00;48.90;;;;;;5016405;28;75857;-68
2021/05/17 01:37:25;;;;;;;;;;;19.00;48.60;;;;;;5015621;28;76943;-66
2021/05/17 01:39:52;;;;;;;;;;;19.00;48.50;;;;;;5016237;28;74447;-67
2021/05/17 01:42:20;;;;;;;;;;;18.90;48.20;;;;;;5034965;28;75239;-67
2021/05/17 01:44:46;;;;;;;;;;;18.80;48.20;;;;;;5015103;28;77800;-67
2021/05/17 01:47:15;;;;;;;;;;;18.90;48.30;;;;;;5034945;28;74436;-67
2021/05/17 01:49:43;;;;;;;;;;;18.80;48.20;;;;;;5034354;28;74491;-66
2021/05/17 01:52:09;;;;;;;;;;;18.70;48.00;;;;;;5016281;28;78243;-67
2021/05/17 01:54:40;;;;;;;;;;;18.70;48.20;;;;;;5034751;28;75930;-66
2021/05/17 01:57:06;;;;;;;;;;;18.70;47.90;;;;;;5034681;28;75164;-67
2021/05/17 01:59:32;;;;;;;;;;;18.70;47.90;;;;;;5030556;28;75811;-66
2021/05/17 02:01:58;;;;;;;;;;;18.60;47.80;;;;;;5034625;28;74545;-68
2021/05/17 02:04:24;;;;;;;;;;;18.60;47.90;;;;;;5034450;28;75479;-67
2021/05/17 02:06:50;;;;;;;;;;;18.50;47.80;;;;;;5015821;28;77060;-68
2021/05/17 02:09:17;;;;;;;;;;;18.50;47.60;;;;;;5034030;28;75446;-68
2021/05/17 02:11:42;;;;;;;;;;;18.40;47.80;;;;;;5049595;28;78112;-67
2021/05/17 02:14:09;;;;;;;;;;;18.40;47.70;;;;;;5015952;28;78369;-67
2021/05/17 02:16:35;;;;;;;;;;;18.40;47.30;;;;;;5016315;28;76796;-66
2021/05/17 02:19:01;;;;;;;;;;;18.40;47.40;;;;;;5015787;28;77127;-66
2021/05/17 02:21:26;;;;;;;;;;;18.40;47.30;;;;;;5015202;28;76056;-67
2021/05/17 02:23:52;;;;;;;;;;;18.40;47.40;;;;;;5034274;28;75359;-67
2021/05/17 02:26:18;;;;;;;;;;;18.40;47.30;;;;;;5049723;28;78242;-67
2021/05/17 02:28:43;;;;;;;;;;;18.30;47.30;;;;;;5049074;28;74667;-68
2021/05/17 02:31:09;;;;;;;;;;;18.40;47.30;;;;;;5034282;28;74937;-67
2021/05/17 02:33:35;;;;;;;;;;;18.40;47.40;;;;;;5034012;28;75310;-68
2021/05/17 02:36:01;;;;;;;;;;;18.40;47.30;;;;;;5033859;28;75225;-68
2021/05/17 02:38:27;;;;;;;;;;;18.40;47.20;;;;;;5015975;28;77286;-68
2021/05/17 02:40:53;;;;;;;;;;;18.40;46.80;;;;;;5032631;28;74643;-68
2021/05/17 02:43:22;;;;;;;;;;;18.30;46.70;;;;;;5033241;28;75035;-68
2021/05/17 02:45:48;;;;;;;;;;;18.40;46.70;;;;;;5034468;28;75461;-68
2021/05/17 02:48:14;;;;;;;;;;;18.20;46.70;;;;;;5033808;28;75092;-67
2021/05/17 02:50:40;;;;;;;;;;;18.20;46.80;;;;;;5015386;28;77242;-68
2021/05/17 02:53:25;;;;;;;;;;;18.10;46.70;;;;;;5015442;28;76015;-68
2021/05/17 02:55:53;;;;;;;;;;;18.10;46.80;;;;;;5048690;28;77216;-69
2021/05/17 02:58:20;;;;;;;;;;;18.10;46.90;;;;;;5033269;28;75758;-68
2021/05/17 03:00:49;;;;;;;;;;;18.10;47.10;;;;;;5033879;28;75249;-69
2021/05/17 03:03:21;;;;;;;;;;;18.10;47.10;;;;;;5033779;28;75299;-68
2021/05/17 03:05:52;;;;;;;;;;;18.10;47.00;;;;;;5015232;28;74791;-67
2021/05/17 03:08:20;;;;;;;;;;;18.10;47.00;;;;;;5014771;28;75547;-67
2021/05/17 03:10:45;;;;;;;;;;;18.10;46.80;;;;;;5025143;28;76797;-67
2021/05/17 03:13:12;;;;;;;;;;;18.10;47.00;;;;;;5032402;28;75738;-67
2021/05/17 03:15:39;;;;;;;;;;;18.00;46.90;;;;;;5054184;28;75677;-68
2021/05/17 03:18:05;;;;;;;;;;;18.10;46.90;;;;;;5053893;28;75370;-67
2021/05/17 03:20:31;;;;;;;;;;;18.10;46.80;;;;;;5035082;28;75758;-67
2021/05/17 03:22:57;;;;;;;;;;;18.00;46.80;;;;;;5034911;28;76395;-67
2021/05/17 03:25:24;;;;;;;;;;;18.10;46.80;;;;;;5035234;28;76828;-67
2021/05/17 03:27:50;;;;;;;;;;;18.10;46.80;;;;;;5034825;28;78023;-67
2021/05/17 03:30:16;;;;;;;;;;;18.10;46.50;;;;;;5034898;28;74843;-68
2021/05/17 03:32:42;;;;;;;;;;;18.10;46.60;;;;;;5053736;28;74871;-69
2021/05/17 03:35:08;;;;;;;;;;;18.10;46.60;;;;;;5054157;28;74370;-67
2021/05/17 03:37:33;;;;;;;;;;;18.20;46.50;;;;;;5068816;27;75399;-66
2021/05/17 03:39:59;;;;;;;;;;;18.20;46.30;;;;;;5034738;28;77447;-66
2021/05/17 03:42:25;;;;;;;;;;;18.20;46.30;;;;;;5035108;28;74649;-66
2021/05/17 03:44:50;;;;;;;;;;;18.20;46.50;;;;;;5053347;28;75155;-66
2021/05/17 03:47:16;;;;;;;;;;;18.20;46.40;;;;;;5053635;28;75142;-66
2021/05/17 03:49:41;;;;;;;;;;;18.10;46.40;;;;;;5053261;28;75195;-68
2021/05/17 03:52:07;;;;;;;;;;;18.10;46.40;;;;;;5053440;28;75149;-66
2021/05/17 03:54:33;;;;;;;;;;;18.10;46.40;;;;;;5034497;28;77031;-69
2021/05/17 03:56:58;;;;;;;;;;;18.20;46.40;;;;;;5058209;27;75309;-69
2021/05/17 03:59:24;;;;;;;;;;;18.10;46.30;;;;;;5061400;27;75355;-69
2021/05/17 04:01:50;;;;;;;;;;;18.10;46.40;;;;;;5034236;28;75321;-69
2021/05/17 04:04:17;;;;;;;;;;;18.00;46.30;;;;;;5046302;27;75541;-67
2021/05/17 04:14:43;;;;;;;;;;;17.90;46.50;;;;;;5061941;27;74979;-66
2021/05/17 04:17:09;;;;;;;;;;;17.80;46.50;;;;;;5047690;28;74616;-67
2021/05/17 04:19:34;;;;;;;;;;;17.90;46.60;;;;;;5053558;27;75154;-67
2021/05/17 04:22:00;;;;;;;;;;;17.80;46.60;;;;;;5054597;27;75661;-67
2021/05/17 04:24:25;;;;;;;;;;;17.90;46.50;;;;;;5055231;27;76785;-67
2021/05/17 04:26:51;;;;;;;;;;;17.80;46.50;;;;;;5069209;27;74468;-67
2021/05/17 04:29:17;;;;;;;;;;;17.80;46.50;;;;;;5034131;28;75184;-67
2021/05/17 04:31:42;;;;;;;;;;;17.80;46.60;;;;;;5052811;28;75391;-67
2021/05/17 04:34:08;;;;;;;;;;;17.80;46.60;;;;;;5052653;28;75008;-67
2021/05/17 04:36:34;;;;;;;;;;;17.80;46.70;;;;;;5052636;28;75229;-67
2021/05/17 04:38:59;;;;;;;;;;;17.70;46.70;;;;;;5052627;28;74923;-67
2021/05/17 04:41:26;;;;;;;;;;;17.80;46.70;;;;;;5052944;28;75153;-67
2021/05/17 04:43:52;;;;;;;;;;;17.70;46.70;;;;;;5033459;28;76176;-67
2021/05/17 04:46:17;;;;;;;;;;;17.70;46.70;;;;;;5052553;28;74997;-68
2021/05/17 04:48:49;;;;;;;;;;;17.60;46.70;;;;;;5052224;28;75293;-67
2021/05/17 04:51:19;;;;;;;;;;;17.50;46.80;;;;;;5052549;28;75702;-66
2021/05/17 04:53:45;;;;;;;;;;;17.50;46.80;;;;;;5033764;28;74873;-66
2021/05/17 04:56:10;;;;;;;;;;;17.50;46.80;;;;;;5033386;28;77352;-68
2021/05/17 04:58:36;;;;;;;;;;;17.50;46.90;;;;;;5051964;28;75543;-68
2021/05/17 05:01:03;;;;;;;;;;;17.40;46.90;;;;;;5052448;28;75166;-68
2021/05/17 05:03:29;;;;;;;;;;;17.40;47.20;;;;;;5033082;28;77569;-67
2021/05/17 05:05:56;;;;;;;;;;;17.40;47.20;;;;;;5053585;27;74531;-68
2021/05/17 05:08:21;;;;;;;;;;;17.40;47.20;;;;;;5055573;28;75284;-67
2021/05/17 05:10:47;;;;;;;;;;;17.40;47.20;;;;;;5037116;28;77188;-67
2021/05/17 05:13:12;;;;;;;;;;;17.40;47.20;;;;;;5037341;28;78324;-67
2021/05/17 05:15:38;;;;;;;;;;;17.40;47.40;;;;;;5037370;28;77701;-67
2021/05/17 05:18:03;;;;;;;;;;;17.40;47.40;;;;;;5055751;28;76280;-67
2021/05/17 05:20:30;;;;;;;;;;;17.40;47.40;;;;;;5037019;28;76331;-67
2021/05/17 05:22:56;;;;;;;;;;;17.40;47.30;;;;;;5036836;28;77350;-67
2021/05/17 05:25:24;;;;;;;;;;;17.40;47.40;;;;;;5037122;28;74478;-68
2021/05/17 05:27:53;;;;;;;;;;;17.40;47.40;;;;;;5070617;27;75420;-67
2021/05/17 05:33:11;;;;;;;;;;;17.40;47.30;;;;;;5062388;27;74828;-66
2021/05/17 05:35:36;;;;;;;;;;;17.40;47.30;;;;;;5070264;27;75967;-66
2021/05/17 05:38:02;;;;;;;;;;;17.50;47.30;;;;;;5051188;27;75818;-67
2021/05/17 05:40:28;;;;;;;;;;;17.50;47.10;;;;;;5056844;27;77922;-68
2021/05/17 05:42:53;;;;;;;;;;;17.50;47.10;;;;;;5054537;27;75513;-70
2021/05/17 05:45:20;;;;;;;;;;;17.60;47.00;;;;;;5056469;27;76364;-68
2021/05/17 05:47:46;;;;;;;;;;;17.60;46.90;;;;;;5057001;27;77925;-68
2021/05/17 05:50:11;;;;;;;;;;;17.70;46.90;;;;;;5056194;27;77086;-69
2021/05/17 05:52:37;;;;;;;;;;;17.70;46.90;;;;;;5074917;27;75687;-70
2021/05/17 05:55:05;;;;;;;;;;;17.70;46.70;;;;;;5056403;27;76212;-66
2021/05/17 05:57:37;;;;;;;;;;;17.70;46.90;;;;;;5056240;27;76373;-67
2021/05/17 06:00:04;;;;;;;;;;;17.70;46.70;;;;;;5075604;27;74506;-67
2021/05/17 06:02:29;;;;;;;;;;;17.70;46.80;;;;;;5056137;27;78023;-67
2021/05/17 06:04:56;;;;;;;;;;;17.80;47.30;;;;;;5074817;27;74698;-66
2021/05/17 06:07:21;;;;;;;;;;;17.80;47.30;;;;;;5050069;27;77399;-65
2021/05/17 06:09:47;;;;;;;;;;;17.80;47.10;;;;;;5042408;27;76965;-67
2021/05/17 06:12:13;;;;;;;;;;;17.90;47.30;;;;;;5055977;27;75475;-67
2021/05/17 06:14:38;;;;;;;;;;;17.90;47.40;;;;;;5074072;27;76593;-66
2021/05/17 06:17:04;;;;;;;;;;;17.90;47.40;;;;;;5055093;27;75774;-66
2021/05/17 06:19:30;;;;;;;;;;;17.90;47.50;;;;;;5053705;27;75880;-64
2021/05/17 06:21:56;;;;;;;;;;;17.90;47.40;;;;;;5088159;27;76990;-66
2021/05/17 06:24:22;;;;;;;;;;;17.90;47.30;;;;;;5073874;27;74991;-66
2021/05/17 06:26:48;;;;;;;;;;;17.90;47.30;;;;;;5055880;27;78000;-68
2021/05/17 06:29:13;;;;;;;;;;;18.00;47.10;;;;;;5056207;27;76352;-70
2021/05/17 06:31:44;;;;;;;;;;;17.90;47.00;;;;;;5074533;27;75098;-67
2021/05/17 06:34:09;;;;;;;;;;;17.90;47.20;;;;;;5074114;27;75030;-68
2021/05/17 06:36:35;;;;;;;;;;;17.90;47.20;;;;;;5055755;27;77272;-65
2021/05/17 06:39:02;;;;;;;;;;;17.90;47.00;;;;;;5074492;27;75160;-65
2021/05/17 06:41:30;;;;;;;;;;;18.00;47.10;;;;;;5056196;27;77836;-66
2021/05/17 06:43:56;;;;;;;;;;;17.90;47.10;;;;;;5073829;27;75464;-68
2021/05/17 06:46:22;;;;;;;;;;;17.90;47.30;;;;;;5074279;27;75013;-67
2021/05/17 06:48:47;;;;;;;;;;;18.00;47.10;;;;;;5055394;27;77593;-68
2021/05/17 06:51:19;;;;;;;;;;;18.00;46.80;;;;;;5072840;27;75541;-67
2021/05/17 06:53:46;;;;;;;;;;;18.00;46.70;;;;;;5052331;27;74924;-67
2021/05/17 06:56:24;;;;;;;;;;;18.00;46.80;;;;;;5054890;27;75295;-68
2021/05/17 06:58:59;;;;;;;;;;;18.00;46.60;;;;;;5055152;27;75208;-68
2021/05/17 07:01:26;;;;;;;;;;;18.10;46.60;;;;;;5073547;27;75091;-68
2021/05/17 07:03:52;;;;;;;;;;;18.20;46.50;;;;;;5054468;27;77383;-68
2021/05/17 07:06:22;;;;;;;;;;;18.20;46.60;;;;;;5054620;27;76992;-68
2021/05/17 07:11:52;;;;;;;;;;;18.40;46.00;;;;;;5045357;28;74911;-68
2021/05/17 07:14:17;;;;;;;;;;;18.50;45.70;;;;;;5049786;28;77217;-68
2021/05/17 07:16:43;;;;;;;;;;;18.50;45.60;;;;;;5050825;28;76518;-68
2021/05/17 07:19:09;;;;;;;;;;;18.60;45.30;;;;;;5051236;28;77139;-68
2021/05/17 07:24:21;;;;;;;;;;;18.70;45.00;;;;;;5050694;28;75771;-68
2021/05/17 07:26:47;;;;;;;;;;;18.70;44.90;;;;;;5052136;28;75970;-68
2021/05/17 07:29:14;;;;;;;;;;;18.80;44.80;;;;;;5051160;28;74890;-68
2021/05/17 07:31:39;;;;;;;;;;;18.80;44.70;;;;;;5053355;28;75054;-68
2021/05/17 07:34:05;;;;;;;;;;;18.80;44.70;;;;;;5051116;28;74692;-68
2021/05/17 07:36:31;;;;;;;;;;;18.80;44.60;;;;;;5052919;28;75178;-68
2021/05/17 07:38:57;;;;;;;;;;;18.90;44.80;;;;;;5050380;27;75507;-68
2021/05/17 07:41:24;;;;;;;;;;;18.90;44.60;;;;;;5034670;28;74652;-66
2021/05/17 07:43:50;;;;;;;;;;;19.00;44.60;;;;;;5042747;28;74442;-71
2021/05/17 07:46:16;;;;;;;;;;;19.00;44.40;;;;;;5085112;27;75651;-71
2021/05/17 07:51:26;;;;;;;;;;;19.00;44.10;;;;;;5050445;28;74910;-72
2021/05/17 07:53:52;;;;;;;;;;;18.90;44.30;;;;;;5046283;28;78917;-72
2021/05/17 07:56:18;;;;;;;;;;;18.90;44.30;;;;;;5042675;28;75565;-71
2021/05/17 07:58:43;;;;;;;;;;;19.00;43.90;;;;;;5032117;28;75992;-72
2021/05/17 08:01:11;;;;;;;;;;;19.00;43.90;;;;;;5031806;28;77362;-72
2021/05/17 08:03:37;;;;;;;;;;;19.20;43.90;;;;;;5025594;28;76373;-71
2021/05/17 08:06:02;;;;;;;;;;;19.40;43.70;;;;;;5033160;28;75773;-72
2021/05/17 08:08:28;;;;;;;;;;;19.50;43.40;;;;;;5050420;27;75250;-72
2021/05/17 08:10:54;;;;;;;;;;;19.70;42.80;;;;;;5032776;28;75011;-72
2021/05/17 08:13:19;;;;;;;;;;;19.80;42.40;;;;;;5031837;28;75396;-72
2021/05/17 08:15:45;;;;;;;;;;;19.70;42.60;;;;;;5031872;28;75312;-72
2021/05/17 08:18:11;;;;;;;;;;;19.80;42.70;;;;;;5031937;28;77193;-71
2021/05/17 08:20:36;;;;;;;;;;;19.80;42.50;;;;;;5050717;28;76773;-71
2021/05/17 08:23:02;;;;;;;;;;;19.80;42.40;;;;;;5031892;28;76732;-72
2021/05/17 08:25:27;;;;;;;;;;;19.80;42.60;;;;;;5031451;28;77668;-72
2021/05/17 08:27:55;;;;;;;;;;;19.90;42.70;;;;;;5032140;28;75417;-71
2021/05/17 08:30:23;;;;;;;;;;;20.00;42.50;;;;;;5032143;28;77081;-71
2021/05/17 08:32:49;;;;;;;;;;;20.00;42.30;;;;;;5031649;28;76040;-71
2021/05/17 08:35:15;;;;;;;;;;;20.10;41.90;;;;;;5028749;28;77151;-72
2021/05/17 08:37:40;;;;;;;;;;;20.20;41.70;;;;;;5032002;28;77524;-72
2021/05/17 08:40:06;;;;;;;;;;;20.30;41.50;;;;;;5031337;28;76023;-71
2021/05/17 08:42:32;;;;;;;;;;;20.40;41.10;;;;;;5032382;28;76458;-71
2021/05/17 08:44:59;;;;;;;;;;;20.40;41.20;;;;;;5031290;28;77111;-72
2021/05/17 08:47:25;;;;;;;;;;;20.50;40.90;;;;;;5050249;28;75717;-72
2021/05/17 08:49:50;;;;;;;;;;;20.50;40.40;;;;;;5032076;28;76821;-72
2021/05/17 08:52:16;;;;;;;;;;;20.50;40.90;;;;;;5032399;28;76672;-72
2021/05/17 08:54:42;;;;;;;;;;;20.60;40.80;;;;;;5030987;28;74862;-72
2021/05/17 08:57:08;;;;;;;;;;;20.70;40.50;;;;;;5050320;28;75533;-72
2021/05/17 08:59:33;;;;;;;;;;;20.80;40.30;;;;;;5031926;28;75601;-69
2021/05/17 09:01:59;;;;;;;;;;;20.80;38.90;;;;;;5031987;28;74749;-71
2021/05/17 09:04:25;;;;;;;;;;;20.70;40.00;;;;;;5028658;28;75681;-71
2021/05/17 09:06:55;;;;;;;;;;;20.70;39.90;;;;;;5032125;28;76706;-72
2021/05/17 09:09:41;;;;;;;;;;;20.80;40.40;;;;;;5027678;28;76722;-72
2021/05/17 09:12:11;;;;;;;;;;;20.90;40.30;;;;;;5027697;28;75824;-72
2021/05/17 09:14:37;;;;;;;;;;;21.20;39.30;;;;;;5031539;28;77147;-72
2021/05/17 09:17:07;;;;;;;;;;;21.40;38.80;;;;;;5049808;28;75306;-71
2021/05/17 09:19:33;;;;;;;;;;;21.40;39.30;;;;;;5049622;28;75924;-71
2021/05/17 09:22:12;;;;;;;;;;;21.40;39.50;;;;;;5051471;28;75155;-72
2021/05/17 09:24:42;;;;;;;;;;;21.40;38.60;;;;;;5050413;28;75015;-70
2021/05/17 09:27:10;;;;;;;;;;;21.50;39.10;;;;;;5033351;28;75147;-70
2021/05/17 09:29:36;;;;;;;;;;;21.60;38.80;;;;;;5050829;28;74530;-71
2021/05/17 09:32:12;;;;;;;;;;;21.60;38.50;;;;;;5033239;28;77593;-71
2021/05/17 09:34:38;;;;;;;;;;;21.70;38.60;;;;;;5049403;28;75017;-68
2021/05/17 09:37:08;;;;;;;;;;;21.90;38.60;;;;;;5048860;28;75337;-68
2021/05/17 09:39:46;;;;;;;;;;;21.90;37.20;;;;;;5046339;28;75371;-68
2021/05/17 09:42:11;;;;;;;;;;;21.90;37.00;;;;;;5047095;27;76167;-68
2021/05/17 09:44:40;;;;;;;;;;;21.90;37.40;;;;;;5045303;28;75073;-68
2021/05/17 09:47:08;;;;;;;;;;;21.90;38.10;;;;;;5047834;28;74557;-70
2021/05/17 09:49:36;;;;;;;;;;;21.90;36.70;;;;;;5036343;27;75883;-68
2021/05/17 09:52:17;;;;;;;;;;;21.90;36.40;;;;;;5040916;28;75216;-68
2021/05/17 09:54:50;;;;;;;;;;;21.80;37.20;;;;;;5015864;28;75508;-68
2021/05/17 09:57:16;;;;;;;;;;;21.90;37.30;;;;;;5054440;28;75380;-68
2021/05/17 09:59:46;;;;;;;;;;;22.00;36.80;;;;;;5054224;28;75645;-69
2021/05/17 10:02:30;;;;;;;;;;;22.10;36.30;;;;;;5035721;28;76512;-69
2021/05/17 10:04:56;;;;;;;;;;;22.20;36.00;;;;;;5053965;28;75200;-68
2021/05/17 10:07:22;;;;;;;;;;;22.30;35.50;;;;;;5054819;28;75236;-67
2021/05/17 10:09:48;;;;;;;;;;;22.40;35.70;;;;;;5032927;28;78070;-68
2021/05/17 10:12:14;;;;;;;;;;;22.40;36.10;;;;;;5053047;28;75068;-69
2021/05/17 10:14:39;;;;;;;;;;;22.50;37.20;;;;;;5053191;28;75673;-71
2021/05/17 10:17:05;;;;;;;;;;;22.80;36.50;;;;;;5034560;28;77105;-67
2021/05/17 10:19:31;;;;;;;;;;;23.00;36.10;;;;;;5034706;28;77061;-68
2021/05/17 10:21:57;;;;;;;;;;;23.20;36.40;;;;;;5034448;28;76529;-69
2021/05/17 10:24:23;;;;;;;;;;;23.50;36.50;;;;;;5034715;28;77519;-68
2021/05/17 10:26:49;;;;;;;;;;;23.80;35.30;;;;;;5035078;28;77100;-68
2021/05/17 10:29:15;;;;;;;;;;;24.00;34.10;;;;;;5035775;28;75357;-69
2021/05/17 10:31:54;;;;;;;;;;;24.20;33.00;;;;;;5031592;28;77815;-69
2021/05/17 10:34:20;;;;;;;;;;;24.40;33.30;;;;;;5013577;28;77230;-69
2021/05/17 10:36:47;;;;;;;;;;;24.70;25.90;;;;;;5061108;27;76056;-69
2021/05/17 10:39:13;;;;;;;;;;;24.70;29.60;;;;;;5040319;27;77525;-69
2021/05/17 10:47:42;;;;;;;;;;;25.40;28.60;;;;;;5049165;28;75920;-69
2021/05/17 10:50:12;;;;;;;;;;;25.60;28.50;;;;;;5053546;28;76024;-69
2021/05/17 10:52:38;;;;;;;;;;;25.60;29.20;;;;;;5035321;28;75367;-69
2021/05/17 10:55:08;;;;;;;;;;;25.80;29.10;;;;;;5052490;28;74513;-69
2021/05/17 10:57:40;;;;;;;;;;;26.10;28.80;;;;;;5053239;27;74908;-69
2021/05/17 11:00:27;;;;;;;;;;;26.40;29.10;;;;;;5035372;28;74963;-69
2021/05/17 11:03:11;;;;;;;;;;;27.00;28.30;;;;;;5067913;27;75346;-69
2021/05/17 11:05:38;;;;;;;;;;;27.50;27.60;;;;;;5073513;27;75177;-69
2021/05/17 11:08:12;;;;;;;;;;;28.00;26.40;;;;;;5074092;27;74618;-69
2021/05/17 11:10:40;;;;;;;;;;;28.40;26.50;;;;;;5055154;27;77487;-69
2021/05/17 11:13:07;;;;;;;;;;;28.90;25.50;;;;;;5073898;27;74521;-69
2021/05/17 11:15:39;;;;;;;;;;;29.40;24.20;;;;;;5055581;27;77162;-69
2021/05/17 11:18:04;;;;;;;;;;;29.90;24.30;;;;;;5071247;27;75703;-69
2021/05/17 11:20:48;;;;;;;;;;;30.40;24.30;;;;;;5072337;27;74687;-68
2021/05/17 11:23:26;;;;;;;;;;;31.00;23.40;;;;;;5055325;27;75536;-68
2021/05/17 11:28:48;;;;;;;;;;;32.30;20.40;;;;;;5070650;27;74893;-68
2021/05/17 11:31:15;;;;;;;;;;;33.10;19.90;;;;;;5054918;27;77338;-68
2021/05/17 11:33:55;;;;;;;;;;;34.10;20.90;;;;;;5073670;27;75218;-69
2021/05/17 11:36:21;;;;;;;;;;;35.50;19.90;;;;;;5072784;27;75928;-68
2021/05/17 11:39:02;;;;;;;;;;;36.90;18.50;;;;;;5055147;27;75849;-68
2021/05/17 11:41:29;;;;;;;;;;;38.20;18.10;;;;;;5054093;27;77137;-68
2021/05/17 11:44:01;;;;;;;;;;;39.30;15.70;;;;;;5073490;27;75382;-68
2021/05/17 11:46:26;;;;;;;;;;;39.40;14.30;;;;;;5072808;27;75193;-68
2021/05/17 11:48:52;;;;;;;;;;;39.60;16.00;;;;;;5053865;27;74715;-68
2021/05/17 11:51:22;;;;;;;;;;;40.60;15.80;;;;;;5054679;27;76321;-68
2021/05/17 11:53:48;;;;;;;;;;;41.60;14.70;;;;;;5054553;27;75453;-69
2021/05/17 11:56:14;;;;;;;;;;;42.00;14.90;;;;;;5054461;27;77026;-69
2021/05/17 11:58:40;;;;;;;;;;;42.70;14.30;;;;;;5054483;27;77079;-69
2021/05/17 12:01:16;;;;;;;;;;;43.20;14.30;;;;;;5073361;27;74597;-69
2021/05/17 12:03:41;;;;;;;;;;;43.80;12.70;;;;;;5073006;27;75224;-69
2021/05/17 12:06:07;;;;;;;;;;;44.10;13.10;;;;;;5054487;27;76520;-68
2021/05/17 12:08:33;;;;;;;;;;;44.70;13.70;;;;;;5072577;27;75152;-68
2021/05/17 12:10:59;;;;;;;;;;;45.20;13.70;;;;;;5073012;27;74522;-68
2021/05/17 12:13:24;;;;;;;;;;;45.60;11.20;;;;;;5073079;27;75255;-67
2021/05/17 12:15:50;;;;;;;;;;;45.20;12.40;;;;;;5052645;27;74680;-68
2021/05/17 12:18:16;;;;;;;;;;;44.70;12.90;;;;;;5054165;27;76969;-68
2021/05/17 12:20:42;;;;;;;;;;;45.40;13.10;;;;;;5053242;27;75236;-68
2021/05/17 12:23:08;;;;;;;;;;;46.20;13.20;;;;;;5050881;27;76558;-68
2021/05/17 12:25:35;;;;;;;;;;;46.70;12.50;;;;;;5071639;27;75098;-68
2021/05/17 12:28:02;;;;;;;;;;;47.00;12.10;;;;;;5053176;27;75790;-69
2021/05/17 12:30:28;;;;;;;;;;;47.50;12.90;;;;;;5072214;27;75475;-69
2021/05/17 12:32:58;;;;;;;;;;;48.20;12.40;;;;;;5071734;27;75226;-68
2021/05/17 12:35:23;;;;;;;;;;;49.00;12.10;;;;;;5053225;27;77143;-68
2021/05/17 12:37:49;;;;;;;;;;;49.70;11.90;;;;;;5071976;27;74562;-67
2021/05/17 12:40:18;;;;;;;;;;;50.20;11.90;;;;;;5053871;27;78037;-68
2021/05/17 12:42:44;;;;;;;;;;;50.30;11.60;;;;;;5072329;27;75714;-69
2021/05/17 12:45:12;;;;;;;;;;;49.90;12.40;;;;;;5072227;27;75231;-69
2021/05/17 12:47:39;;;;;;;;;;;50.50;11.90;;;;;;5053682;27;77443;-69
2021/05/17 12:50:05;;;;;;;;;;;51.40;11.10;;;;;;5053062;27;77990;-68
2021/05/17 12:52:36;;;;;;;;;;;51.90;11.40;;;;;;5051549;27;77236;-69
2021/05/17 12:55:22;;;;;;;;;;;51.90;9.50;;;;;;5052367;27;77233;-69
2021/05/17 12:57:52;;;;;;;;;;;51.10;10.40;;;;;;5053233;27;74822;-70
2021/05/17 13:00:33;;;;;;;;;;;51.40;9.10;;;;;;5053997;27;78279;-69
2021/05/17 13:03:07;;;;;;;;;;;50.80;10.40;;;;;;5051464;27;77745;-69
2021/05/17 13:05:49;;;;;;;;;;;51.40;10.10;;;;;;5051433;27;76008;-70
2021/05/17 13:08:15;;;;;;;;;;;51.90;9.40;;;;;;5052940;27;75864;-69
2021/05/17 13:10:53;;;;;;;;;;;52.50;10.30;;;;;;5053076;27;77274;-68
2021/05/17 13:13:19;;;;;;;;;;;52.90;9.90;;;;;;5052676;27;75278;-68
2021/05/17 13:16:10;;;;;;;;;;;53.00;9.80;;;;;;5054005;27;75417;-70
2021/05/17 13:18:55;;;;;;;;;;;53.20;8.10;;;;;;5047962;27;75395;-69
2021/05/17 13:21:34;;;;;;;;;;;52.80;8.60;;;;;;5054022;27;77503;-69
2021/05/17 13:24:31;;;;;;;;;;;53.40;9.70;;;;;;5054110;27;75389;-69
2021/05/17 13:32:28;;;;;;;;;;;52.90;8.10;;;;;;5075879;27;74842;-70
2021/05/17 13:34:54;;;;;;;;;;;53.50;8.90;;;;;;5057195;27;78074;-69
2021/05/17 13:37:19;;;;;;;;;;;53.90;7.90;;;;;;5075466;27;75733;-69
2021/05/17 13:39:45;;;;;;;;;;;53.90;7.80;;;;;;5057070;27;77370;-69
2021/05/17 13:42:11;;;;;;;;;;;53.50;8.90;;;;;;5075489;27;75213;-68
2021/05/17 13:44:36;;;;;;;;;;;54.20;9.10;;;;;;5057274;27;75202;-71
2021/05/17 13:47:02;;;;;;;;;;;55.00;9.00;;;;;;5057181;27;75731;-67
2021/05/17 13:49:32;;;;;;;;;;;55.00;9.10;;;;;;5075063;27;74990;-67
2021/05/17 13:51:57;;;;;;;;;;;55.10;9.40;;;;;;5056910;27;75837;-68
2021/05/17 13:54:23;;;;;;;;;;;55.30;9.50;;;;;;5075280;27;75168;-68
2021/05/17 13:56:48;;;;;;;;;;;55.40;9.10;;;;;;5076128;27;74526;-68
2021/05/17 13:59:14;;;;;;;;;;;56.00;8.70;;;;;;5056889;27;76858;-68
2021/05/17 14:01:40;;;;;;;;;;;56.10;9.10;;;;;;5057153;27;74973;-68
2021/05/17 14:04:05;;;;;;;;;;;55.90;9.00;;;;;;5075528;27;75114;-67
2021/05/17 14:06:31;;;;;;;;;;;55.80;8.50;;;;;;5075272;27;75103;-68
2021/05/17 14:08:57;;;;;;;;;;;55.80;8.20;;;;;;5075154;27;74625;-68
2021/05/17 14:11:22;;;;;;;;;;;55.40;8.30;;;;;;5056493;27;75338;-68
2021/05/17 14:13:48;;;;;;;;;;;54.80;8.30;;;;;;5056882;27;74397;-68
2021/05/17 14:16:14;;;;;;;;;;;54.80;8.60;;;;;;5075332;27;75069;-70
2021/05/17 14:18:41;;;;;;;;;;;54.70;8.50;;;;;;5075601;27;75728;-70
2021/05/17 14:21:07;;;;;;;;;;;55.10;8.40;;;;;;5056587;27;75429;-68
2021/05/17 14:23:32;;;;;;;;;;;55.70;8.90;;;;;;5056933;27;77348;-69
2021/05/17 14:25:58;;;;;;;;;;;56.10;8.40;;;;;;5056638;27;76815;-69
2021/05/17 14:28:24;;;;;;;;;;;56.30;7.80;;;;;;5075147;27;75674;-69
2021/05/17 14:30:49;;;;;;;;;;;55.00;7.80;;;;;;5057022;27;77973;-69
2021/05/17 14:33:15;;;;;;;;;;;54.50;8.20;;;;;;5056688;27;77823;-68
2021/05/17 14:35:41;;;;;;;;;;;53.90;8.30;;;;;;5074668;27;74855;-69
2021/05/17 14:38:07;;;;;;;;;;;52.80;8.10;;;;;;5055379;27;75100;-69
2021/05/17 14:40:33;;;;;;;;;;;50.90;8.60;;;;;;5056341;27;77229;-70
2021/05/17 14:42:58;;;;;;;;;;;49.10;8.50;;;;;;5075000;27;75182;-68
2021/05/17 14:45:24;;;;;;;;;;;47.20;9.10;;;;;;5074673;27;74964;-69
2021/05/17 14:47:49;;;;;;;;;;;47.40;8.70;;;;;;5056298;27;76944;-68
2021/05/17 14:50:15;;;;;;;;;;;46.70;9.10;;;;;;5056162;27;77797;-68
2021/05/17 14:52:42;;;;;;;;;;;45.10;9.60;;;;;;5074458;27;75147;-67
2021/05/17 14:55:08;;;;;;;;;;;43.70;10.50;;;;;;5056010;27;77094;-67